sensor_id;sensor_type;location;lat;lon;timestamp;pressure;altitude;pressure_sealevel;temperature;humidity
4814;BME280;15375;48.540;9.268;2022-09-02T00:02:14;97371.22;;;16.01;88.69
4814;BME280;15375;48.540;9.268;2022-09-02T00:04:42;97384.72;;;15.55;88.94
4814;BME280;15375;48.540;9.268;2022-09-02T00:07:08;97354.91;;;15.75;89.74
4814;BME280;15375;48.540;9.268;2022-09-02T00:09:33;97361.56;;;15.65;92.12
4814;BME280;15375;48.540;9.268;2022-09-02T00:11:59;97337.72;;;15.19;90.77
4814;BME280;15375;48.540;9.268;2022-09-02T00:14:31;97346.63;;;15.23;93.51
4814;BME280;15375;48.540;9.268;2022-09-02T00:16:56;97327.56;;;15.07;92.33
4814;BME280;15375;48.540;9.268;2022-09-02T00:19:26;97374.09;;;15.45;92.55
4814;BME280;15375;48.540;9.268;2022-09-02T00:21:54;97347.41;;;15.45;92.97
4814;BME280;15375;48.540;9.268;2022-09-02T00:24:21;97353.72;;;15.33;94.05
4814;BME280;15375;48.540;9.268;2022-09-02T00:26:47;97354.28;;;15.28;93.27
4814;BME280;15375;48.540;9.268;2022-09-02T00:29:13;97330.38;;;15.38;93.31
4814;BME280;15375;48.540;9.268;2022-09-02T00:31:43;97360.41;;;15.75;95.13
4814;BME280;15375;48.540;9.268;2022-09-02T00:34:09;97356.41;;;15.76;93.99
4814;BME280;15375;48.540;9.268;2022-09-02T00:36:35;97325.25;;;15.70;93.51
4814;BME280;15375;48.540;9.268;2022-09-02T00:39:02;97350.50;;;15.87;90.89
4814;BME280;15375;48.540;9.268;2022-09-02T00:41:28;97348.63;;;15.75;93.24
4814;BME280;15375;48.540;9.268;2022-09-02T00:44:00;97347.94;;;15.40;93.13
4814;BME280;15375;48.540;9.268;2022-09-02T00:46:28;97339.94;;;15.46;95.14
4814;BME280;15375;48.540;9.268;2022-09-02T00:49:22;97339.50;;;15.56;90.91
4814;BME280;15375;48.540;9.268;2022-09-02T00:51:56;97336.88;;;15.31;92.35
4814;BME280;15375;48.540;9.268;2022-09-02T00:54:25;97351.72;;;15.12;92.91
4814;BME280;15375;48.540;9.268;2022-09-02T00:56:51;97327.75;;;15.34;94.22
4814;BME280;15375;48.540;9.268;2022-09-02T01:02:08;97328.06;;;15.36;90.40
4814;BME280;15375;48.540;9.268;2022-09-02T01:04:34;97351.59;;;15.37;93.75
4814;BME280;15375;48.540;9.268;2022-09-02T01:07:00;97324.69;;;15.32;91.21
4814;BME280;15375;48.540;9.268;2022-09-02T01:09:27;97342.91;;;15.17;96.79
4814;BME280;15375;48.540;9.268;2022-09-02T01:11:53;97332.47;;;15.12;93.90
4814;BME280;15375;48.540;9.268;2022-09-02T01:14:20;97350.38;;;15.16;99.88
4814;BME280;15375;48.540;9.268;2022-09-02T01:16:49;97338.03;;;15.21;96.79
4814;BME280;15375;48.540;9.268;2022-09-02T01:19:24;97332.53;;;14.78;98.23
4814;BME280;15375;48.540;9.268;2022-09-02T01:21:52;97355.13;;;14.82;99.01
4814;BME280;15375;48.540;9.268;2022-09-02T01:24:19;97360.59;;;14.60;99.42
4814;BME280;15375;48.540;9.268;2022-09-02T01:26:44;97351.47;;;14.50;100.00
4814;BME280;15375;48.540;9.268;2022-09-02T01:29:10;97336.47;;;14.42;100.00
4814;BME280;15375;48.540;9.268;2022-09-02T01:31:36;97332.63;;;14.27;100.00
4814;BME280;15375;48.540;9.268;2022-09-02T01:34:02;97340.97;;;14.36;100.00
4814;BME280;15375;48.540;9.268;2022-09-02T01:36:32;97355.22;;;14.44;100.00
4814;BME280;15375;48.540;9.268;2022-09-02T01:38:57;97319.47;;;14.22;100.00
4814;BME280;15375;48.540;9.268;2022-09-02T01:41:22;97338.22;;;14.49;100.00
4814;BME280;15375;48.540;9.268;2022-09-02T01:43:48;97347.91;;;14.75;100.00
4814;BME280;15375;48.540;9.268;2022-09-02T01:46:13;97344.66;;;14.67;100.00
4814;BME280;15375;48.540;9.268;2022-09-02T01:48:39;97311.25;;;14.35;100.00
4814;BME280;15375;48.540;9.268;2022-09-02T01:51:05;97334.06;;;14.19;100.00
4814;BME280;15375;48.540;9.268;2022-09-02T01:53:31;97334.75;;;14.70;100.00
4814;BME280;15375;48.540;9.268;2022-09-02T01:55:56;97334.00;;;15.56;98.34
4814;BME280;15375;48.540;9.268;2022-09-02T01:58:22;97316.50;;;16.03;90.09
4814;BME280;15375;48.540;9.268;2022-09-02T02:00:48;97322.22;;;15.77;89.25
4814;BME280;15375;48.540;9.268;2022-09-02T02:03:13;97335.00;;;15.71;91.65
4814;BME280;15375;48.540;9.268;2022-09-02T02:05:40;97326.03;;;15.49;92.34
4814;BME280;15375;48.540;9.268;2022-09-02T02:08:05;97297.31;;;15.81;89.83
4814;BME280;15375;48.540;9.268;2022-09-02T02:10:31;97323.09;;;16.81;86.80
4814;BME280;15375;48.540;9.268;2022-09-02T02:12:56;97327.38;;;16.73;82.82
4814;BME280;15375;48.540;9.268;2022-09-02T02:15:22;97342.28;;;16.45;83.54
4814;BME280;15375;48.540;9.268;2022-09-02T02:17:48;97313.56;;;15.57;87.72
4814;BME280;15375;48.540;9.268;2022-09-02T02:20:14;97345.69;;;15.26;87.25
4814;BME280;15375;48.540;9.268;2022-09-02T02:22:41;97314.25;;;15.70;88.34
4814;BME280;15375;48.540;9.268;2022-09-02T02:25:08;97336.22;;;15.18;88.62
4814;BME280;15375;48.540;9.268;2022-09-02T02:27:33;97317.81;;;14.50;93.39
4814;BME280;15375;48.540;9.268;2022-09-02T02:29:59;97323.63;;;14.39;98.27
4814;BME280;15375;48.540;9.268;2022-09-02T02:32:25;97336.81;;;14.32;100.00
4814;BME280;15375;48.540;9.268;2022-09-02T02:34:51;97334.97;;;14.63;97.29
4814;BME280;15375;48.540;9.268;2022-09-02T02:37:17;97306.84;;;14.25;96.46
4814;BME280;15375;48.540;9.268;2022-09-02T02:39:42;97304.53;;;14.23;97.51
4814;BME280;15375;48.540;9.268;2022-09-02T02:42:08;97317.63;;;14.32;100.00
4814;BME280;15375;48.540;9.268;2022-09-02T02:44:34;97338.69;;;14.69;98.75
4814;BME280;15375;48.540;9.268;2022-09-02T02:47:00;97319.28;;;14.63;93.93
4814;BME280;15375;48.540;9.268;2022-09-02T02:49:26;97320.72;;;14.55;91.80
4814;BME280;15375;48.540;9.268;2022-09-02T02:51:52;97320.72;;;14.90;93.82
4814;BME280;15375;48.540;9.268;2022-09-02T02:54:19;97317.03;;;15.05;94.04
4814;BME280;15375;48.540;9.268;2022-09-02T02:56:44;97297.16;;;14.80;90.98
4814;BME280;15375;48.540;9.268;2022-09-02T02:59:10;97320.88;;;15.08;91.80
4814;BME280;15375;48.540;9.268;2022-09-02T03:01:35;97306.97;;;14.68;89.52
4814;BME280;15375;48.540;9.268;2022-09-02T03:04:02;97328.00;;;14.84;94.60
4814;BME280;15375;48.540;9.268;2022-09-02T03:06:27;97312.09;;;14.79;93.87
4814;BME280;15375;48.540;9.268;2022-09-02T03:08:54;97307.34;;;14.57;93.35
4814;BME280;15375;48.540;9.268;2022-09-02T03:11:20;97323.41;;;14.46;93.92
4814;BME280;15375;48.540;9.268;2022-09-02T03:13:48;97313.63;;;14.45;97.99
4814;BME280;15375;48.540;9.268;2022-09-02T03:16:14;97307.59;;;14.25;97.20
4814;BME280;15375;48.540;9.268;2022-09-02T03:18:40;97319.78;;;14.49;97.59
4814;BME280;15375;48.540;9.268;2022-09-02T03:21:07;97312.34;;;14.72;93.88
4814;BME280;15375;48.540;9.268;2022-09-02T03:23:34;97298.19;;;14.60;98.14
4814;BME280;15375;48.540;9.268;2022-09-02T03:26:00;97316.47;;;15.10;92.05
4814;BME280;15375;48.540;9.268;2022-09-02T03:28:25;97291.44;;;14.52;91.50
4814;BME280;15375;48.540;9.268;2022-09-02T03:30:50;97290.94;;;14.32;91.19
4814;BME280;15375;48.540;9.268;2022-09-02T03:33:16;97305.66;;;14.73;97.97
4814;BME280;15375;48.540;9.268;2022-09-02T03:35:43;97309.88;;;14.52;96.67
4814;BME280;15375;48.540;9.268;2022-09-02T03:38:10;97292.69;;;14.26;93.99
4814;BME280;15375;48.540;9.268;2022-09-02T03:40:36;97313.63;;;14.20;94.37
4814;BME280;15375;48.540;9.268;2022-09-02T03:43:02;97311.69;;;14.08;94.89
4814;BME280;15375;48.540;9.268;2022-09-02T03:45:28;97315.44;;;14.01;97.06
4814;BME280;15375;48.540;9.268;2022-09-02T03:47:55;97294.28;;;14.02;97.06
4814;BME280;15375;48.540;9.268;2022-09-02T03:50:23;97295.56;;;14.10;100.00
4814;BME280;15375;48.540;9.268;2022-09-02T03:52:50;97309.38;;;14.66;95.72
4814;BME280;15375;48.540;9.268;2022-09-02T03:55:15;97288.84;;;14.36;93.35
4814;BME280;15375;48.540;9.268;2022-09-02T03:57:41;97283.59;;;14.17;91.23
4814;BME280;15375;48.540;9.268;2022-09-02T04:00:08;97306.69;;;14.53;94.92
4814;BME280;15375;48.540;9.268;2022-09-02T04:02:34;97292.50;;;14.67;93.05
4814;BME280;15375;48.540;9.268;2022-09-02T04:04:59;97281.50;;;14.89;94.54
4814;BME280;15375;48.540;9.268;2022-09-02T04:07:25;97283.63;;;14.85;93.38
4814;BME280;15375;48.540;9.268;2022-09-02T04:09:50;97299.69;;;14.96;88.66
4814;BME280;15375;48.540;9.268;2022-09-02T04:12:16;97290.38;;;14.72;91.18
4814;BME280;15375;48.540;9.268;2022-09-02T04:14:42;97289.03;;;15.72;88.20
4814;BME280;15375;48.540;9.268;2022-09-02T04:20:47;97298.03;;;14.77;88.54
4814;BME280;15375;48.540;9.268;2022-09-02T04:23:12;97305.88;;;14.19;88.83
4814;BME280;15375;48.540;9.268;2022-09-02T04:25:42;97312.00;;;14.35;90.72
4814;BME280;15375;48.540;9.268;2022-09-02T04:28:08;97308.44;;;14.82;88.81
4814;BME280;15375;48.540;9.268;2022-09-02T04:30:37;97288.03;;;14.48;90.98
4814;BME280;15375;48.540;9.268;2022-09-02T04:33:03;97291.41;;;14.65;88.03
4814;BME280;15375;48.540;9.268;2022-09-02T04:35:28;97293.56;;;14.70;90.20
4814;BME280;15375;48.540;9.268;2022-09-02T04:37:54;97290.88;;;15.01;92.69
4814;BME280;15375;48.540;9.268;2022-09-02T04:40:19;97275.38;;;15.07;86.58
4814;BME280;15375;48.540;9.268;2022-09-02T04:42:44;97292.50;;;14.89;89.66
4814;BME280;15375;48.540;9.268;2022-09-02T04:45:10;97299.19;;;14.66;91.32
4814;BME280;15375;48.540;9.268;2022-09-02T04:47:35;97299.91;;;14.20;87.70
4814;BME280;15375;48.540;9.268;2022-09-02T04:50:01;97297.72;;;14.40;95.03
4814;BME280;15375;48.540;9.268;2022-09-02T04:52:26;97289.63;;;14.24;88.36
4814;BME280;15375;48.540;9.268;2022-09-02T04:54:52;97285.00;;;14.21;88.64
4814;BME280;15375;48.540;9.268;2022-09-02T04:57:17;97298.00;;;13.83;92.07
4814;BME280;15375;48.540;9.268;2022-09-02T04:59:42;97298.31;;;13.47;93.90
4814;BME280;15375;48.540;9.268;2022-09-02T05:02:08;97295.78;;;13.40;95.61
4814;BME280;15375;48.540;9.268;2022-09-02T05:04:34;97286.59;;;13.72;95.87
4814;BME280;15375;48.540;9.268;2022-09-02T05:07:00;97303.81;;;13.85;96.01
4814;BME280;15375;48.540;9.268;2022-09-02T05:09:27;97290.00;;;13.76;99.10
4814;BME280;15375;48.540;9.268;2022-09-02T05:11:52;97301.59;;;13.67;94.95
4814;BME280;15375;48.540;9.268;2022-09-02T05:14:22;97305.25;;;13.64;97.53
4814;BME280;15375;48.540;9.268;2022-09-02T05:16:49;97284.28;;;13.32;100.00
4814;BME280;15375;48.540;9.268;2022-09-02T05:19:19;97287.88;;;13.29;100.00
4814;BME280;15375;48.540;9.268;2022-09-02T05:21:46;97306.13;;;13.86;100.00
4814;BME280;15375;48.540;9.268;2022-09-02T05:24:12;97297.53;;;14.10;94.26
4814;BME280;15375;48.540;9.268;2022-09-02T05:26:38;97299.84;;;13.98;94.18
4814;BME280;15375;48.540;9.268;2022-09-02T05:29:07;97281.84;;;15.13;87.80
4814;BME280;15375;48.540;9.268;2022-09-02T05:31:34;97285.44;;;17.05;76.97
4814;BME280;15375;48.540;9.268;2022-09-02T05:33:59;97288.16;;;18.87;68.52
4814;BME280;15375;48.540;9.268;2022-09-02T05:36:25;97307.63;;;19.07;67.07
4814;BME280;15375;48.540;9.268;2022-09-02T05:38:50;97309.63;;;20.24;65.31
4814;BME280;15375;48.540;9.268;2022-09-02T05:41:21;97306.25;;;22.35;55.96
4814;BME280;15375;48.540;9.268;2022-09-02T05:43:48;97304.19;;;22.72;53.25
4814;BME280;15375;48.540;9.268;2022-09-02T05:46:16;97299.91;;;23.63;50.58
4814;BME280;15375;48.540;9.268;2022-09-02T05:48:42;97305.94;;;22.69;52.05
4814;BME280;15375;48.540;9.268;2022-09-02T05:51:27;97307.66;;;22.19;53.00
4814;BME280;15375;48.540;9.268;2022-09-02T05:53:54;97317.56;;;22.68;54.96
4814;BME280;15375;48.540;9.268;2022-09-02T05:56:20;97299.91;;;23.91;51.23
4814;BME280;15375;48.540;9.268;2022-09-02T05:58:46;97302.53;;;24.74;47.23
4814;BME280;15375;48.540;9.268;2022-09-02T06:01:13;97291.56;;;24.93;46.90
4814;BME280;15375;48.540;9.268;2022-09-02T06:03:42;97302.94;;;25.00;46.63
4814;BME280;15375;48.540;9.268;2022-09-02T06:06:07;97305.97;;;23.73;48.85
4814;BME280;15375;48.540;9.268;2022-09-02T06:08:33;97295.75;;;24.47;48.27
4814;BME280;15375;48.540;9.268;2022-09-02T06:10:59;97300.41;;;25.02;45.61
4814;BME280;15375;48.540;9.268;2022-09-02T06:13:29;97308.50;;;23.82;48.23
4814;BME280;15375;48.540;9.268;2022-09-02T06:15:55;97306.66;;;25.19;45.88
4814;BME280;15375;48.540;9.268;2022-09-02T06:18:22;97306.00;;;25.49;46.35
4814;BME280;15375;48.540;9.268;2022-09-02T06:20:48;97309.69;;;27.18;42.93
4814;BME280;15375;48.540;9.268;2022-09-02T06:23:14;97303.91;;;26.92;43.69
4814;BME280;15375;48.540;9.268;2022-09-02T06:25:43;97303.16;;;26.19;42.93
4814;BME280;15375;48.540;9.268;2022-09-02T06:28:09;97301.72;;;26.07;44.89
4814;BME280;15375;48.540;9.268;2022-09-02T06:30:38;97302.50;;;25.37;45.29
4814;BME280;15375;48.540;9.268;2022-09-02T06:33:04;97279.22;;;24.71;46.92
4814;BME280;15375;48.540;9.268;2022-09-02T06:35:30;97276.47;;;25.18;46.43
4814;BME280;15375;48.540;9.268;2022-09-02T06:37:58;97283.78;;;25.97;44.56
4814;BME280;15375;48.540;9.268;2022-09-02T06:40:24;97286.44;;;26.08;44.87
4814;BME280;15375;48.540;9.268;2022-09-02T06:42:50;97292.13;;;26.75;43.04
4814;BME280;15375;48.540;9.268;2022-09-02T06:45:15;97300.59;;;27.31;42.29
4814;BME280;15375;48.540;9.268;2022-09-02T06:47:41;97290.25;;;26.11;44.21
4814;BME280;15375;48.540;9.268;2022-09-02T06:50:07;97279.63;;;25.79;44.63
4814;BME280;15375;48.540;9.268;2022-09-02T06:52:33;97288.25;;;27.02;42.74
4814;BME280;15375;48.540;9.268;2022-09-02T06:54:59;97299.50;;;25.70;45.39
4814;BME280;15375;48.540;9.268;2022-09-02T06:57:24;97295.91;;;25.75;45.10
4814;BME280;15375;48.540;9.268;2022-09-02T06:59:50;97289.78;;;25.77;45.65
4814;BME280;15375;48.540;9.268;2022-09-02T07:02:16;97288.41;;;26.19;45.04
4814;BME280;15375;48.540;9.268;2022-09-02T07:04:41;97294.31;;;25.50;45.32
4814;BME280;15375;48.540;9.268;2022-09-02T07:07:25;97291.03;;;24.03;49.39
4814;BME280;15375;48.540;9.268;2022-09-02T07:09:51;97291.78;;;23.48;50.40
4814;BME280;15375;48.540;9.268;2022-09-02T07:12:17;97278.50;;;22.99;52.10
4814;BME280;15375;48.540;9.268;2022-09-02T07:14:44;97287.09;;;22.42;54.08
4814;BME280;15375;48.540;9.268;2022-09-02T07:17:12;97292.06;;;22.27;56.07
4814;BME280;15375;48.540;9.268;2022-09-02T07:19:44;97287.59;;;21.73;57.48
4814;BME280;15375;48.540;9.268;2022-09-02T07:22:10;97285.06;;;21.69;57.73
4814;BME280;15375;48.540;9.268;2022-09-02T07:24:36;97286.84;;;22.03;57.62
4814;BME280;15375;48.540;9.268;2022-09-02T07:27:02;97288.59;;;21.70;57.31
4814;BME280;15375;48.540;9.268;2022-09-02T07:29:27;97287.03;;;21.94;57.93
4814;BME280;15375;48.540;9.268;2022-09-02T07:31:52;97271.97;;;21.75;57.98
4814;BME280;15375;48.540;9.268;2022-09-02T07:34:18;97252.66;;;21.86;56.98
4814;BME280;15375;48.540;9.268;2022-09-02T07:36:44;97267.94;;;21.76;57.68
4814;BME280;15375;48.540;9.268;2022-09-02T07:39:11;97275.00;;;22.08;57.97
4814;BME280;15375;48.540;9.268;2022-09-02T07:41:38;97274.41;;;22.30;57.68
4814;BME280;15375;48.540;9.268;2022-09-02T07:44:04;97255.13;;;22.21;56.89
4814;BME280;15375;48.540;9.268;2022-09-02T07:46:31;97280.75;;;22.42;57.08
4814;BME280;15375;48.540;9.268;2022-09-02T07:48:58;97268.66;;;22.45;56.26
4814;BME280;15375;48.540;9.268;2022-09-02T07:51:23;97272.81;;;22.66;56.44
4814;BME280;15375;48.540;9.268;2022-09-02T07:53:49;97258.66;;;22.64;55.77
4814;BME280;15375;48.540;9.268;2022-09-02T07:56:16;97266.88;;;23.06;55.33
4814;BME280;15375;48.540;9.268;2022-09-02T07:58:43;97266.06;;;22.78;55.85
4814;BME280;15375;48.540;9.268;2022-09-02T08:01:10;97253.03;;;22.53;56.43
4814;BME280;15375;48.540;9.268;2022-09-02T08:03:38;97270.13;;;21.92;58.10
4814;BME280;15375;48.540;9.268;2022-09-02T08:06:04;97260.44;;;21.82;59.34
4814;BME280;15375;48.540;9.268;2022-09-02T08:08:30;97256.06;;;22.55;57.83
4814;BME280;15375;48.540;9.268;2022-09-02T08:10:56;97259.28;;;23.01;55.79
4814;BME280;15375;48.540;9.268;2022-09-02T08:13:22;97252.44;;;22.97;54.59
4814;BME280;15375;48.540;9.268;2022-09-02T08:15:48;97264.63;;;23.21;54.83
4814;BME280;15375;48.540;9.268;2022-09-02T08:18:14;97269.00;;;23.50;53.77
4814;BME280;15375;48.540;9.268;2022-09-02T08:20:39;97256.56;;;23.23;52.33
4814;BME280;15375;48.540;9.268;2022-09-02T08:23:06;97274.81;;;23.52;48.02
4814;BME280;15375;48.540;9.268;2022-09-02T08:25:35;97263.16;;;23.87;51.09
4814;BME280;15375;48.540;9.268;2022-09-02T08:28:00;97244.91;;;23.97;46.25
4814;BME280;15375;48.540;9.268;2022-09-02T08:30:26;97265.22;;;23.86;47.22
4814;BME280;15375;48.540;9.268;2022-09-02T08:32:52;97256.78;;;24.25;46.61
4814;BME280;15375;48.540;9.268;2022-09-02T08:35:18;97249.22;;;23.98;46.16
4814;BME280;15375;48.540;9.268;2022-09-02T08:37:43;97258.59;;;24.17;45.47
4814;BME280;15375;48.540;9.268;2022-09-02T08:40:18;97258.34;;;24.09;45.56
4814;BME280;15375;48.540;9.268;2022-09-02T08:42:46;97262.91;;;24.01;45.42
4814;BME280;15375;48.540;9.268;2022-09-02T08:45:24;97265.94;;;24.20;45.58
4814;BME280;15375;48.540;9.268;2022-09-02T08:48:06;97250.47;;;23.25;46.02
4814;BME280;15375;48.540;9.268;2022-09-02T08:50:36;97243.09;;;24.33;47.91
4814;BME280;15375;48.540;9.268;2022-09-02T08:55:54;97253.31;;;23.64;47.00
4814;BME280;15375;48.540;9.268;2022-09-02T08:58:23;97249.50;;;24.17;44.18
4814;BME280;15375;48.540;9.268;2022-09-02T09:01:13;97234.78;;;24.10;44.16
4814;BME280;15375;48.540;9.268;2022-09-02T09:04:10;97236.31;;;23.95;45.08
4814;BME280;15375;48.540;9.268;2022-09-02T09:10:02;97246.34;;;24.42;43.58
4814;BME280;15375;48.540;9.268;2022-09-02T09:12:53;97251.28;;;23.59;43.82
4814;BME280;15375;48.540;9.268;2022-09-02T09:18:40;97221.16;;;23.57;43.93
4814;BME280;15375;48.540;9.268;2022-09-02T09:21:09;97236.09;;;23.71;44.89
4814;BME280;15375;48.540;9.268;2022-09-02T09:23:37;97209.47;;;23.97;45.89
4814;BME280;15375;48.540;9.268;2022-09-02T09:26:15;97211.63;;;24.43;43.59
4814;BME280;15375;48.540;9.268;2022-09-02T09:28:47;97223.13;;;24.06;44.39
4814;BME280;15375;48.540;9.268;2022-09-02T09:31:17;97194.84;;;23.41;44.74
4814;BME280;15375;48.540;9.268;2022-09-02T09:34:00;97217.09;;;23.41;45.57
4814;BME280;15375;48.540;9.268;2022-09-02T09:36:48;97221.16;;;23.68;46.34
4814;BME280;15375;48.540;9.268;2022-09-02T09:39:21;97212.56;;;23.38;45.27
4814;BME280;15375;48.540;9.268;2022-09-02T09:41:49;97228.72;;;23.18;46.19
4814;BME280;15375;48.540;9.268;2022-09-02T09:47:12;97223.91;;;23.18;46.65
4814;BME280;15375;48.540;9.268;2022-09-02T09:49:38;97204.22;;;23.66;44.40
4814;BME280;15375;48.540;9.268;2022-09-02T09:52:04;97203.16;;;23.69;45.08
4814;BME280;15375;48.540;9.268;2022-09-02T09:54:30;97203.13;;;22.97;46.53
4814;BME280;15375;48.540;9.268;2022-09-02T09:57:13;97189.78;;;23.23;46.24
4814;BME280;15375;48.540;9.268;2022-09-02T09:59:45;97215.59;;;23.46;46.22
4814;BME280;15375;48.540;9.268;2022-09-02T10:02:31;97210.53;;;23.61;45.59
4814;BME280;15375;48.540;9.268;2022-09-02T10:05:17;97186.97;;;23.79;46.07
4814;BME280;15375;48.540;9.268;2022-09-02T10:07:56;97199.09;;;23.98;44.79
4814;BME280;15375;48.540;9.268;2022-09-02T10:10:23;97188.78;;;24.50;43.85
4814;BME280;15375;48.540;9.268;2022-09-02T10:12:51;97202.50;;;24.48;45.04
4814;BME280;15375;48.540;9.268;2022-09-02T10:15:26;97194.50;;;24.06;44.63
4814;BME280;15375;48.540;9.268;2022-09-02T10:18:19;97187.56;;;24.40;44.15
4814;BME280;15375;48.540;9.268;2022-09-02T10:21:00;97203.81;;;24.36;44.58
4814;BME280;15375;48.540;9.268;2022-09-02T10:23:48;97183.84;;;24.73;43.79
4814;BME280;15375;48.540;9.268;2022-09-02T10:26:24;97194.78;;;24.65;43.81
4814;BME280;15375;48.540;9.268;2022-09-02T10:31:45;97178.00;;;24.77;43.54
4814;BME280;15375;48.540;9.268;2022-09-02T10:37:16;97181.84;;;24.79;43.89
4814;BME280;15375;48.540;9.268;2022-09-02T10:43:04;97184.00;;;24.97;44.17
4814;BME280;15375;48.540;9.268;2022-09-02T10:45:44;97173.66;;;24.87;43.34
4814;BME280;15375;48.540;9.268;2022-09-02T10:51:04;97157.28;;;24.66;44.27
4814;BME280;15375;48.540;9.268;2022-09-02T10:53:44;97154.38;;;25.24;43.03
4814;BME280;15375;48.540;9.268;2022-09-02T10:56:16;97155.69;;;24.82;43.19
4814;BME280;15375;48.540;9.268;2022-09-02T10:58:54;97152.09;;;24.41;44.31
4814;BME280;15375;48.540;9.268;2022-09-02T11:01:25;97145.19;;;24.47;43.90
4814;BME280;15375;48.540;9.268;2022-09-02T11:04:04;97150.13;;;25.17;45.14
4814;BME280;15375;48.540;9.268;2022-09-02T11:06:39;97155.16;;;25.19;43.48
4814;BME280;15375;48.540;9.268;2022-09-02T11:09:38;97153.50;;;24.64;43.78
4814;BME280;15375;48.540;9.268;2022-09-02T11:12:19;97148.44;;;25.33;43.35
4814;BME280;15375;48.540;9.268;2022-09-02T11:14:55;97141.16;;;24.48;44.45
4814;BME280;15375;48.540;9.268;2022-09-02T11:26:00;97129.59;;;24.74;44.17
4814;BME280;15375;48.540;9.268;2022-09-02T11:28:53;97142.00;;;24.79;45.25
4814;BME280;15375;48.540;9.268;2022-09-02T11:31:54;97143.78;;;24.76;44.81
4814;BME280;15375;48.540;9.268;2022-09-02T11:37:09;97139.78;;;24.66;43.05
4814;BME280;15375;48.540;9.268;2022-09-02T11:39:42;97122.66;;;24.45;44.09
4814;BME280;15375;48.540;9.268;2022-09-02T11:45:02;97128.94;;;24.98;44.92
4814;BME280;15375;48.540;9.268;2022-09-02T11:48:03;97119.91;;;25.16;43.91
4814;BME280;15375;48.540;9.268;2022-09-02T11:53:30;97123.31;;;25.33;42.66
4814;BME280;15375;48.540;9.268;2022-09-02T11:56:04;97134.97;;;25.07;42.73
4814;BME280;15375;48.540;9.268;2022-09-02T11:58:36;97126.53;;;25.13;42.92
4814;BME280;15375;48.540;9.268;2022-09-02T12:03:45;97127.28;;;25.13;42.48
4814;BME280;15375;48.540;9.268;2022-09-02T12:06:16;97126.28;;;25.46;42.55
4814;BME280;15375;48.540;9.268;2022-09-02T12:17:06;97124.47;;;25.19;44.94
4814;BME280;15375;48.540;9.268;2022-09-02T12:24:49;97130.50;;;25.82;43.49
4814;BME280;15375;48.540;9.268;2022-09-02T12:27:35;97122.69;;;25.51;44.00
4814;BME280;15375;48.540;9.268;2022-09-02T12:30:03;97117.44;;;25.66;41.96
4814;BME280;15375;48.540;9.268;2022-09-02T12:35:13;97122.88;;;24.94;43.72
4814;BME280;15375;48.540;9.268;2022-09-02T12:37:51;97118.03;;;25.29;41.62
4814;BME280;15375;48.540;9.268;2022-09-02T12:40:25;97100.72;;;25.07;42.44
4814;BME280;15375;48.540;9.268;2022-09-02T12:42:55;97115.56;;;24.91;42.26
4814;BME280;15375;48.540;9.268;2022-09-02T12:45:25;97111.31;;;25.14;42.38
4814;BME280;15375;48.540;9.268;2022-09-02T12:50:54;97098.94;;;25.09;42.69
4814;BME280;15375;48.540;9.268;2022-09-02T12:55:57;97094.09;;;25.10;42.79
4814;BME280;15375;48.540;9.268;2022-09-02T12:58:49;97078.78;;;25.22;42.58
4814;BME280;15375;48.540;9.268;2022-09-02T13:15:52;97077.31;;;24.80;43.55
4814;BME280;15375;48.540;9.268;2022-09-02T13:18:54;97080.56;;;24.90;42.75
4814;BME280;15375;48.540;9.268;2022-09-02T13:32:23;97041.84;;;25.34;43.68
4814;BME280;15375;48.540;9.268;2022-09-02T13:34:51;97038.28;;;25.10;43.45
4814;BME280;15375;48.540;9.268;2022-09-02T13:37:30;97039.72;;;24.92;43.41
4814;BME280;15375;48.540;9.268;2022-09-02T13:39:56;97034.97;;;24.82;43.11
4814;BME280;15375;48.540;9.268;2022-09-02T13:42:24;97026.72;;;25.24;42.59
4814;BME280;15375;48.540;9.268;2022-09-02T13:45:07;97031.91;;;25.15;43.38
4814;BME280;15375;48.540;9.268;2022-09-02T13:47:34;97024.16;;;25.26;42.59
4814;BME280;15375;48.540;9.268;2022-09-02T13:50:00;97015.78;;;25.26;42.28
4814;BME280;15375;48.540;9.268;2022-09-02T13:52:26;97012.88;;;25.13;42.57
4814;BME280;15375;48.540;9.268;2022-09-02T13:54:53;97029.19;;;25.04;43.88
4814;BME280;15375;48.540;9.268;2022-09-02T13:57:24;97017.59;;;25.00;42.75
4814;BME280;15375;48.540;9.268;2022-09-02T13:59:53;97032.00;;;25.28;42.27
4814;BME280;15375;48.540;9.268;2022-09-02T14:02:31;97018.75;;;25.34;42.50
4814;BME280;15375;48.540;9.268;2022-09-02T14:05:00;97012.75;;;25.24;43.05
4814;BME280;15375;48.540;9.268;2022-09-02T14:07:34;97003.53;;;25.35;41.23
4814;BME280;15375;48.540;9.268;2022-09-02T14:10:05;97004.44;;;25.43;42.05
4814;BME280;15375;48.540;9.268;2022-09-02T14:12:34;96996.03;;;25.24;42.16
4814;BME280;15375;48.540;9.268;2022-09-02T14:15:01;97001.94;;;24.56;43.31
4814;BME280;15375;48.540;9.268;2022-09-02T14:17:27;97006.47;;;25.18;43.06
4814;BME280;15375;48.540;9.268;2022-09-02T14:20:17;96985.91;;;25.21;42.79
4814;BME280;15375;48.540;9.268;2022-09-02T14:22:50;96988.50;;;25.14;42.42
4814;BME280;15375;48.540;9.268;2022-09-02T14:25:16;96976.09;;;25.15;42.51
4814;BME280;15375;48.540;9.268;2022-09-02T14:27:50;96974.22;;;25.47;43.14
4814;BME280;15375;48.540;9.268;2022-09-02T14:30:32;96981.19;;;25.35;42.31
4814;BME280;15375;48.540;9.268;2022-09-02T14:36:08;96980.72;;;25.07;43.15
4814;BME280;15375;48.540;9.268;2022-09-02T14:38:50;96972.00;;;24.92;43.00
4814;BME280;15375;48.540;9.268;2022-09-02T14:43:48;96971.00;;;25.13;42.78
4814;BME280;15375;48.540;9.268;2022-09-02T14:49:05;96970.03;;;24.87;44.26
4814;BME280;15375;48.540;9.268;2022-09-02T14:54:00;96961.59;;;24.92;43.31
4814;BME280;15375;48.540;9.268;2022-09-02T14:56:52;96963.22;;;25.06;42.82
4814;BME280;15375;48.540;9.268;2022-09-02T14:59:18;96946.94;;;24.86;43.18
4814;BME280;15375;48.540;9.268;2022-09-02T15:01:46;96957.47;;;24.99;42.93
4814;BME280;15375;48.540;9.268;2022-09-02T15:04:13;96941.59;;;24.88;43.08
4814;BME280;15375;48.540;9.268;2022-09-02T15:06:40;96941.00;;;24.95;43.07
4814;BME280;15375;48.540;9.268;2022-09-02T15:09:05;96944.44;;;25.07;42.97
4814;BME280;15375;48.540;9.268;2022-09-02T15:11:31;96940.91;;;24.82;42.95